Time;durP1;ratioP1;P1;durP2;ratioP2;P2;SDS_P1;SDS_P2;PMS_P1;PMS_P2;Temp;Humidity;BMP_temperature;BMP_pressure;BME280_temperature;BME280_humidity;BME280_pressure;Samples;Min_cycle;Max_cycle;Signal;HPM_P1;HPM_P2
2022/12/24 13:02:44;;;;;;;32.63;12.00;;;;;;;9.57;100.00;101219.41;5295789;27;20857;-83
2022/12/24 13:05:29;;;;;;;32.57;10.00;;;;;;;9.55;100.00;101227.31;5313113;28;20538;-86
2022/12/24 13:08:22;;;;;;;36.10;12.07;;;;;;;9.55;100.00;101219.47;5312233;28;20119;-84
2022/12/24 13:11:11;;;;;;;36.90;10.80;;;;;;;9.54;100.00;101211.72;5313504;28;20024;-83
2022/12/24 13:14:14;;;;;;;35.47;12.90;;;;;;;9.61;100.00;101217.47;5312195;28;20024;-86
2022/12/24 13:17:10;;;;;;;29.63;11.53;;;;;;;9.64;100.00;101218.19;5310211;28;20475;-84
2022/12/24 13:20:09;;;;;;;40.43;13.10;;;;;;;9.66;100.00;101218.09;5312919;28;20027;-84
2022/12/24 13:22:48;;;;;;;45.30;12.80;;;;;;;9.72;100.00;101216.94;5310478;28;20032;-86
2022/12/24 13:25:22;;;;;;;28.30;11.03;;;;;;;9.72;100.00;101217.78;5314248;28;20024;-73
2022/12/24 13:27:53;;;;;;;;;;;;;;;9.79;100.00;101216.56;5293750;28;20020;-74
2022/12/24 13:30:35;;;;;;;30.73;9.17;;;;;;;9.71;100.00;101215.25;5309504;28;19939;-84
2022/12/24 13:33:12;;;;;;;32.67;9.07;;;;;;;9.77;100.00;101230.66;5306113;28;20017;-82
2022/12/24 13:36:10;;;;;;;24.33;8.23;;;;;;;9.75;100.00;101227.25;5309715;28;20059;-84
2022/12/24 13:38:48;;;;;;;29.93;10.73;;;;;;;9.76;100.00;101235.03;5313420;28;20100;-77
2022/12/24 13:41:35;;;;;;;34.03;10.50;;;;;;;9.79;100.00;101231.41;5313406;28;20035;-79
2022/12/24 13:44:08;;;;;;;27.80;9.27;;;;;;;9.81;100.00;101234.78;5312646;28;20103;-83
2022/12/24 13:46:56;;;;;;;29.00;9.40;;;;;;;9.77;100.00;101228.03;5294316;28;20026;-79
2022/12/24 13:49:40;;;;;;;36.53;11.43;;;;;;;9.77;100.00;101231.47;5314277;28;20020;-78
2022/12/24 13:52:13;;;;;;;25.00;9.32;;;;;;;9.77;100.00;101236.69;5311304;28;20032;-80
2022/12/24 13:55:01;;;;;;;30.30;11.53;;;;;;;9.82;100.00;101246.97;5298239;28;20051;-80
2022/12/24 13:57:38;;;;;;;29.80;10.00;;;;;;;9.77;100.00;101244.56;5302551;28;20020;-80
2022/12/24 14:00:31;;;;;;;32.77;10.80;;;;;;;9.75;100.00;101248.19;5316733;28;20178;-73
2022/12/24 14:03:26;;;;;;;32.47;11.07;;;;;;;9.74;100.00;101249.94;5327546;28;20028;-78
2022/12/24 14:06:01;;;;;;;24.80;9.27;;;;;;;9.77;100.00;101254.19;5272592;28;20040;-74
2022/12/24 14:08:39;;;;;;;32.00;11.00;;;;;;;9.76;100.00;101247.25;5313159;28;20323;-79
2022/12/24 14:11:22;;;;;;;27.53;9.27;;;;;;;9.77;100.00;101248.97;5311332;28;20028;-81
2022/12/24 14:14:11;;;;;;;25.50;9.53;;;;;;;9.78;100.00;101248.03;5295860;28;20081;-78
2022/12/24 14:16:49;;;;;;;31.80;9.40;;;;;;;9.75;100.00;101250.78;5298105;28;20370;-81
2022/12/24 14:19:41;;;;;;;27.03;10.03;;;;;;;9.82;100.00;101256.56;5298659;28;20028;-74
2022/12/24 14:22:21;;;;;;;35.80;8.77;;;;;;;9.78;100.00;101264.56;5297735;28;20036;-75
2022/12/24 14:24:59;;;;;;;30.23;9.50;;;;;;;9.80;100.00;101275.81;5289738;28;20040;-75
2022/12/24 14:27:49;;;;;;;28.87;9.97;;;;;;;9.82;100.00;101265.28;5289763;28;20032;-76
2022/12/24 14:30:23;;;;;;;33.27;10.93;;;;;;;9.79;100.00;101266.25;5287096;28;20043;-77
2022/12/24 14:32:54;;;;;;;38.67;9.43;;;;;;;9.74;100.00;101264.81;5287547;28;20028;-75
2022/12/24 14:35:35;;;;;;;26.17;9.00;;;;;;;9.76;100.00;101273.41;5287249;28;20506;-80
2022/12/24 14:38:13;;;;;;;38.57;9.87;;;;;;;9.73;100.00;101273.56;5280410;28;20141;-77
2022/12/24 14:41:03;;;;;;;26.20;9.03;;;;;;;9.78;100.00;101287.25;5281004;28;20024;-78
2022/12/24 14:44:04;;;;;;;29.53;8.80;;;;;;;9.67;100.00;101275.56;5289062;28;20024;-84
2022/12/24 14:46:47;;;;;;;33.07;8.40;;;;;;;9.65;100.00;101277.41;5267525;28;21083;-74
2022/12/24 14:49:37;;;;;;;31.90;9.03;;;;;;;9.68;100.00;101287.72;5290377;28;20028;-74
2022/12/24 14:52:26;;;;;;;27.67;7.87;;;;;;;9.62;100.00;101288.00;5289154;28;20463;-75
2022/12/24 14:54:57;;;;;;;33.07;8.67;;;;;;;9.64;100.00;101301.00;5288487;28;20493;-75
2022/12/24 14:57:28;;;;;;;27.40;8.23;;;;;;;9.64;100.00;101308.84;5288141;28;20040;-76
2022/12/24 15:00:05;;;;;;;31.23;10.23;;;;;;;9.60;100.00;101305.53;5288943;28;20146;-75
2022/12/24 15:02:39;;;;;;;28.53;7.03;;;;;;;9.58;100.00;101306.56;5290593;28;20063;-72
2022/12/24 15:05:19;;;;;;;26.23;7.80;;;;;;;9.59;100.00;101323.91;5289236;28;20052;-73
2022/12/24 15:07:56;;;;;;;24.47;8.07;;;;;;;9.51;100.00;101329.53;5288683;28;20043;-74
2022/12/24 15:10:37;;;;;;;31.27;8.80;;;;;;;9.53;100.00;101322.47;5288857;28;20202;-75
2022/12/24 15:13:21;;;;;;;32.37;8.90;;;;;;;9.50;100.00;101330.44;5285056;28;20028;-70
2022/12/24 15:15:55;;;;;;;30.25;8.18;;;;;;;9.41;100.00;101327.34;5285261;28;20046;-81
2022/12/24 15:18:30;;;;;;;26.95;8.98;;;;;;;9.35;100.00;101322.41;5286473;28;20028;-77
2022/12/24 15:21:04;;;;;;;24.30;7.73;;;;;;;9.28;100.00;101323.63;5287908;28;20039;-73
2022/12/24 15:23:36;;;;;;;25.20;8.20;;;;;;;9.25;100.00;101301.06;5287196;28;20525;-72
2022/12/24 15:26:28;;;;;;;18.90;7.30;;;;;;;9.14;100.00;101324.25;5288991;28;20036;-75
2022/12/24 15:29:00;;;;;;;26.47;9.20;;;;;;;9.10;100.00;101323.53;5276141;28;20371;-75
2022/12/24 15:31:31;;;;;;;32.20;9.47;;;;;;;9.14;100.00;101325.13;5288339;28;20066;-77
2022/12/24 15:34:03;;;;;;;32.17;8.77;;;;;;;8.97;100.00;101319.81;5288191;28;20118;-79
2022/12/24 15:36:35;;;;;;;18.90;7.47;;;;;;;8.83;100.00;101323.91;5287495;28;20028;-76
2022/12/24 15:39:15;;;;;;;30.33;8.80;;;;;;;8.92;100.00;101330.47;5287142;28;20031;-73
2022/12/24 15:44:46;;;;;;;37.47;11.17;;;;;;;9.00;100.00;101337.94;5287043;28;20468;-73
2022/12/24 15:47:23;;;;;;;27.07;9.30;;;;;;;8.81;100.00;101328.34;5285753;28;20443;-73
2022/12/24 15:49:55;;;;;;;35.00;10.07;;;;;;;8.74;100.00;101321.69;5285726;28;20855;-72
2022/12/24 15:52:26;;;;;;;34.63;10.90;;;;;;;8.78;100.00;101342.38;5286656;28;20020;-71
2022/12/24 15:54:58;;;;;;;27.43;8.97;;;;;;;8.66;100.00;101341.16;5287171;28;20035;-73
2022/12/24 15:57:32;;;;;;;30.97;8.63;;;;;;;8.73;100.00;101346.13;5287904;28;20028;-72
2022/12/24 16:00:20;;;;;;;31.42;8.65;;;;;;;8.79;100.00;101340.59;5286120;28;20630;-73
2022/12/24 16:02:52;;;;;;;30.17;10.00;;;;;;;8.58;100.00;101359.78;5286170;28;20039;-77
2022/12/24 16:05:31;;;;;;;31.53;9.47;;;;;;;8.65;100.00;101349.91;5287157;28;20023;-77
2022/12/24 16:08:07;;;;;;;25.67;8.83;;;;;;;8.59;100.00;101351.00;5285438;28;20216;-74
2022/12/24 16:10:42;;;;;;;33.40;10.47;;;;;;;8.59;100.00;101334.50;5284772;28;20133;-72
2022/12/24 16:13:28;;;;;;;32.37;9.93;;;;;;;8.66;100.00;101341.16;5288831;28;20386;-73
2022/12/24 16:16:02;;;;;;;28.07;8.23;;;;;;;8.66;100.00;101341.16;5281288;28;20058;-74
2022/12/24 16:19:01;;;;;;;23.85;7.60;;;;;;;8.60;100.00;101338.81;5288439;28;20025;-77
2022/12/24 16:21:38;;;;;;;26.53;7.03;;;;;;;8.48;100.00;101348.81;5280017;28;20039;-74
2022/12/24 16:24:17;;;;;;;25.40;7.63;;;;;;;8.59;100.00;101351.00;5283254;28;20485;-71
2022/12/24 16:26:49;;;;;;;36.57;8.43;;;;;;;8.67;100.00;101358.53;5284528;28;20073;-73
2022/12/24 16:29:21;;;;;;;31.77;8.57;;;;;;;8.56;100.00;101351.16;5286430;28;20036;-72
2022/12/24 16:31:57;;;;;;;36.30;8.13;;;;;;;8.54;100.00;101352.94;5286740;28;20048;-73
2022/12/24 16:34:30;;;;;;;24.47;7.70;;;;;;;8.38;100.00;101351.91;5287806;28;21224;-75
2022/12/24 16:37:01;;;;;;;42.90;10.13;;;;;;;8.44;100.00;101352.50;5286111;28;20568;-69
2022/12/24 16:39:34;;;;;;;26.73;7.50;;;;;;;8.44;100.00;101355.09;5286550;28;20111;-74
2022/12/24 16:44:55;;;;;;;35.57;8.70;;;;;;;8.32;100.00;101359.09;5283068;28;20040;-81
2022/12/24 16:47:30;;;;;;;26.13;6.57;;;;;;;8.42;100.00;101367.38;5274501;28;20372;-75
2022/12/24 16:50:07;;;;;;;26.30;7.70;;;;;;;8.30;100.00;101358.31;5287228;28;20055;-74
2022/12/24 16:52:38;;;;;;;30.80;6.83;;;;;;;8.28;100.00;101359.25;5287292;28;20039;-73
2022/12/24 16:55:13;;;;;;;20.93;7.70;;;;;;;8.28;100.00;101361.88;5289644;28;20024;-73
2022/12/24 16:57:44;;;;;;;;;;;;;;;8.49;100.00;101365.34;5285885;28;20044;-78
2022/12/24 17:00:21;;;;;;;27.17;7.20;;;;;;;8.27;100.00;101348.00;5277065;28;19955;-75
2022/12/24 17:02:52;;;;;;;31.90;8.30;;;;;;;8.21;100.00;101351.69;5282489;28;20479;-70
2022/12/24 17:05:23;;;;;;;27.87;9.20;;;;;;;8.23;100.00;101343.81;5279399;28;20023;-79
2022/12/24 17:07:58;;;;;;;34.53;8.87;;;;;;;8.25;100.00;101357.66;5284402;28;20028;-75
2022/12/24 17:10:30;;;;;;;34.90;7.87;;;;;;;8.13;100.00;101353.78;5280184;28;20024;-77
2022/12/24 17:13:01;;;;;;;31.37;8.33;;;;;;;8.22;100.00;101361.22;5286441;28;20055;-81
2022/12/24 17:15:32;;;;;;;33.07;7.77;;;;;;;8.14;100.00;101365.91;5289498;28;20029;-79
2022/12/24 17:18:04;;;;;;;21.33;7.70;;;;;;;8.20;100.00;101349.97;5283593;28;20025;-73
2022/12/24 17:20:35;;;;;;;25.93;9.73;;;;;;;8.18;100.00;101346.63;5286620;28;20016;-73
2022/12/24 17:23:06;;;;;;;35.47;10.33;;;;;;;8.37;100.00;101356.28;5285649;28;20089;-74
2022/12/24 17:25:38;;;;;;;33.33;9.07;;;;;;;8.15;100.00;101351.13;5274430;28;20095;-79
2022/12/24 17:28:09;;;;;;;32.27;8.63;;;;;;;8.40;100.00;101368.34;5284851;28;20031;-79
2022/12/24 17:30:40;;;;;;;25.23;7.73;;;;;;;8.26;100.00;101361.94;5279249;28;20024;-78
2022/12/24 17:33:11;;;;;;;29.53;9.23;;;;;;;8.28;100.00;101364.47;5283252;28;20028;-71
2022/12/24 17:35:45;;;;;;;26.50;8.60;;;;;;;8.32;100.00;101366.91;5293984;28;20516;-74
2022/12/24 17:38:16;;;;;;;26.03;7.07;;;;;;;8.27;100.00;101366.25;5288359;28;20074;-78
2022/12/24 17:40:48;;;;;;;30.23;7.80;;;;;;;8.28;100.00;101364.47;5295023;28;20654;-73
2022/12/24 17:43:19;;;;;;;22.30;7.13;;;;;;;8.26;100.00;101380.22;5276530;28;20028;-71
2022/12/24 17:45:50;;;;;;;23.10;6.87;;;;;;;8.19;100.00;101374.41;5286767;28;20117;-72
2022/12/24 17:48:21;;;;;;;32.77;8.97;;;;;;;8.33;100.00;101357.31;5290794;28;20378;-72
2022/12/24 17:50:53;;;;;;;36.53;9.40;;;;;;;8.07;100.00;101352.28;5292243;28;20024;-86
2022/12/24 17:53:24;;;;;;;33.23;9.07;;;;;;;8.26;100.00;101359.34;5300795;28;20061;-75
2022/12/24 17:55:55;;;;;;;36.43;10.73;;;;;;;8.12;100.00;101346.84;5290030;28;20651;-81
2022/12/24 17:58:28;;;;;;;31.10;9.60;;;;;;;8.15;100.00;101361.53;5295868;28;20020;-78
2022/12/24 18:01:00;;;;;;;29.20;8.87;;;;;;;8.19;100.00;101348.31;5294679;28;20074;-90
2022/12/24 18:03:31;;;;;;;34.03;8.90;;;;;;;8.25;100.00;101354.19;5292322;28;20103;-79
2022/12/24 18:06:04;;;;;;;30.80;9.27;;;;;;;8.31;100.00;101356.50;5289487;28;20116;-75
2022/12/24 18:08:38;;;;;;;29.00;9.03;;;;;;;8.21;100.00;101354.31;5296719;28;20020;-85
2022/12/24 18:11:15;;;;;;;36.10;8.07;;;;;;;8.03;100.00;101342.03;5298282;28;20032;-82
2022/12/24 18:13:48;;;;;;;37.50;10.13;;;;;;;8.20;100.00;101349.97;5281892;28;20025;-74
2022/12/24 18:16:30;;;;;;;34.13;9.77;;;;;;;8.03;100.00;101347.25;5291440;28;20095;-74
2022/12/24 18:19:03;;;;;;;34.27;8.80;;;;;;;8.08;100.00;101353.13;5294300;28;20077;-68
2022/12/24 18:21:34;;;;;;;29.17;9.77;;;;;;;7.82;100.00;101355.03;5294815;28;20391;-74
2022/12/24 18:24:06;;;;;;;34.00;9.83;;;;;;;8.12;100.00;101362.50;5297043;28;20039;-76
2022/12/24 18:26:38;;;;;;;35.47;9.47;;;;;;;8.02;100.00;101346.41;5296813;28;20035;-76
2022/12/24 18:29:09;;;;;;;29.03;8.33;;;;;;;7.96;100.00;101357.06;5285661;28;20089;-74
2022/12/24 18:31:40;;;;;;;40.27;10.23;;;;;;;8.02;100.00;101363.78;5291532;28;20025;-78
2022/12/24 18:34:12;;;;;;;36.27;10.10;;;;;;;8.13;100.00;101369.44;5299051;28;20036;-86
2022/12/24 18:36:44;;;;;;;35.67;9.80;;;;;;;8.20;100.00;101370.84;5299108;28;20519;-74
2022/12/24 18:39:15;;;;;;;30.80;9.03;;;;;;;7.81;100.00;101358.53;5298938;28;20058;-81
2022/12/24 18:41:46;;;;;;;35.77;12.33;;;;;;;7.74;100.00;101345.75;5299246;28;20476;-81
2022/12/24 18:44:18;;;;;;;31.97;10.10;;;;;;;7.91;100.00;101357.25;5298938;28;20107;-79
2022/12/24 18:46:49;;;;;;;39.43;11.43;;;;;;;8.06;100.00;101352.34;5297961;28;20220;-78
2022/12/24 18:49:20;;;;;;;43.77;12.97;;;;;;;8.02;100.00;101350.75;5298980;28;20076;-75
2022/12/24 18:51:52;;;;;;;39.17;12.30;;;;;;;8.03;100.00;101352.47;5294054;28;20040;-79
2022/12/24 18:54:23;;;;;;;45.67;12.40;;;;;;;7.85;100.00;101365.34;5294695;28;20028;-76
2022/12/24 18:56:54;;;;;;;40.07;12.87;;;;;;;7.94;100.00;101369.34;5288586;28;20029;-76
2022/12/24 18:59:26;;;;;;;43.43;12.43;;;;;;;8.09;100.00;101365.25;5293022;28;20507;-77
2022/12/24 19:01:57;;;;;;;33.67;11.23;;;;;;;7.85;100.00;101365.34;5296422;28;20063;-74
2022/12/24 19:04:28;;;;;;;49.23;14.33;;;;;;;7.79;100.00;101357.75;5294574;28;20036;-77
2022/12/24 19:07:00;;;;;;;37.67;13.17;;;;;;;7.84;100.00;101355.81;5293501;28;20039;-79
2022/12/24 19:09:31;;;;;;;31.03;12.10;;;;;;;8.08;100.00;101366.19;5294542;28;20614;-72
2022/12/24 19:12:03;;;;;;;48.90;17.83;;;;;;;8.02;100.00;101355.97;5289943;28;20107;-77
2022/12/24 19:14:34;;;;;;;59.87;33.13;;;;;;;8.07;100.00;101364.47;5295430;28;20028;-74
2022/12/24 19:17:05;;;;;;;46.27;18.57;;;;;;;7.99;100.00;101363.00;5294884;28;20050;-72
2022/12/24 19:19:37;;;;;;;40.37;18.27;;;;;;;7.96;100.00;101372.72;5297413;28;20032;-81
2022/12/24 19:22:08;;;;;;;34.60;13.90;;;;;;;8.11;100.00;101373.88;5289259;28;20043;-73
2022/12/24 19:24:39;;;;;;;43.07;14.60;;;;;;;8.12;100.00;101370.34;5297512;28;20101;-73
2022/12/24 19:27:11;;;;;;;39.97;12.80;;;;;;;8.00;100.00;101369.06;5298313;28;20074;-71
2022/12/24 19:29:42;;;;;;;41.50;13.30;;;;;;;7.99;100.00;101373.44;5297483;28;20035;-71
2022/12/24 19:32:13;;;;;;;47.17;14.83;;;;;;;7.89;100.00;101361.69;5296149;28;20035;-78
2022/12/24 19:34:45;;;;;;;49.87;14.40;;;;;;;8.03;100.00;101375.94;5295488;28;20028;-85
2022/12/24 19:37:16;;;;;;;40.57;13.77;;;;;;;7.85;100.00;101371.38;5296375;28;20035;-77
2022/12/24 19:39:47;;;;;;;37.70;10.93;;;;;;;7.94;100.00;101370.16;5299490;28;20032;-79
2022/12/24 19:42:19;;;;;;;35.00;12.67;;;;;;;7.97;100.00;101371.81;5305300;28;20027;-68
2022/12/24 19:44:50;;;;;;;30.83;11.67;;;;;;;7.89;100.00;101372.09;5307671;28;20552;-77
2022/12/24 19:47:21;;;;;;;48.57;13.53;;;;;;;7.90;100.00;101368.63;5305219;28;20027;-75
2022/12/24 19:49:52;;;;;;;33.83;12.90;;;;;;;8.08;100.00;101376.59;5304024;28;20055;-75
2022/12/24 19:52:24;;;;;;;40.13;11.63;;;;;;;7.85;100.00;101370.56;5307032;28;20030;-78
2022/12/24 19:54:55;;;;;;;41.63;12.03;;;;;;;7.85;100.00;101375.78;5301052;28;20077;-82
2022/12/24 19:57:26;;;;;;;36.83;11.57;;;;;;;8.06;100.00;101387.13;5297108;28;20031;-79
2022/12/24 19:59:57;;;;;;;40.10;11.50;;;;;;;8.10;100.00;101386.06;5293699;28;20048;-80
2022/12/24 20:02:29;;;;;;;43.70;13.47;;;;;;;8.06;100.00;101375.81;5297389;28;20028;-74
2022/12/24 20:05:01;;;;;;;45.27;11.57;;;;;;;8.16;100.00;101394.53;5301548;28;20055;-87
2022/12/24 20:07:32;;;;;;;45.37;12.20;;;;;;;7.89;100.00;101382.53;5290777;28;20020;-80
2022/12/24 20:10:04;;;;;;;37.20;12.23;;;;;;;8.14;100.00;101394.59;5283152;28;20451;-87
2022/12/24 20:12:35;;;;;;;41.40;11.40;;;;;;;8.11;100.00;101386.91;5297888;28;22057;-73
2022/12/24 20:15:07;;;;;;;41.17;12.17;;;;;;;8.03;100.00;101384.59;5294052;28;20028;-83
2022/12/24 20:17:38;;;;;;;42.77;11.17;;;;;;;8.11;100.00;101397.34;5297410;28;20267;-74
2022/12/24 20:20:10;;;;;;;38.03;12.00;;;;;;;8.08;100.00;101390.47;5297074;28;20047;-86
2022/12/24 20:22:41;;;;;;;39.20;13.37;;;;;;;8.11;100.00;101386.91;5294130;28;20596;-86
2022/12/24 20:25:12;;;;;;;42.97;13.97;;;;;;;7.96;100.00;101391.81;5295706;28;20123;-75
2022/12/24 20:27:44;;;;;;;32.90;12.10;;;;;;;8.12;100.00;101404.25;5295695;28;20028;-87
2022/12/24 20:30:15;;;;;;;42.47;12.63;;;;;;;8.14;100.00;101405.03;5295780;28;20032;-75
2022/12/24 20:32:46;;;;;;;42.90;12.33;;;;;;;8.17;100.00;101414.53;5294215;28;20038;-74
2022/12/24 20:35:18;;;;;;;35.43;11.70;;;;;;;8.09;100.00;101415.69;5296240;28;20086;-73
2022/12/24 20:37:49;;;;;;;45.57;14.07;;;;;;;8.14;100.00;101406.78;5295237;28;20116;-78
2022/12/24 20:40:21;;;;;;;45.07;13.23;;;;;;;8.14;100.00;101418.09;5294799;28;20024;-79
2022/12/24 20:42:52;;;;;;;43.57;15.30;;;;;;;8.10;100.00;101411.28;5295769;28;20470;-82
2022/12/24 20:45:23;;;;;;;48.57;18.43;;;;;;;8.11;100.00;101413.00;5295587;28;20034;-77
2022/12/24 20:47:55;;;;;;;46.03;14.50;;;;;;;8.10;100.00;101403.47;5287263;28;20036;-81
2022/12/24 20:50:27;;;;;;;36.20;12.67;;;;;;;8.08;100.00;101403.53;5294294;28;20109;-77
2022/12/24 20:52:58;;;;;;;43.63;14.57;;;;;;;7.95;100.00;101391.91;5295406;28;20039;-78
2022/12/24 20:55:30;;;;;;;40.43;12.53;;;;;;;8.03;100.00;101389.00;5296500;28;20115;-85
2022/12/24 20:58:01;;;;;;;41.27;13.17;;;;;;;7.98;100.00;101394.38;5294050;28;20045;-76
2022/12/24 21:00:32;;;;;;;43.27;13.83;;;;;;;7.85;100.00;101391.41;5296109;28;20133;-76
2022/12/24 21:03:04;;;;;;;36.83;13.10;;;;;;;7.85;100.00;101381.00;5295177;28;20028;-79
2022/12/24 21:05:35;;;;;;;46.10;14.13;;;;;;;7.87;100.00;101390.44;5302730;28;20110;-74
2022/12/24 21:08:08;;;;;;;37.27;14.37;;;;;;;7.74;100.00;101392.69;5315780;28;20046;-73
2022/12/24 21:10:40;;;;;;;38.73;13.80;;;;;;;7.77;100.00;101393.47;5299589;28;20645;-76
2022/12/24 21:13:11;;;;;;;44.10;13.93;;;;;;;7.86;100.00;101395.72;5295917;28;20031;-79
2022/12/24 21:15:45;;;;;;;44.27;14.63;;;;;;;7.91;100.00;101405.97;5295064;28;20032;-75
2022/12/24 21:18:16;;;;;;;44.40;13.00;;;;;;;7.84;100.00;101379.28;5301113;28;20023;-83
2022/12/24 21:20:47;;;;;;;41.67;12.53;;;;;;;7.78;100.00;101389.97;5303216;28;20039;-75
2022/12/24 21:23:19;;;;;;;38.53;12.07;;;;;;;7.85;100.00;101392.25;5297310;28;20063;-73
2022/12/24 21:26:01;;;;;;;40.23;11.87;;;;;;;7.81;100.00;101385.47;5299354;28;20081;-76
2022/12/24 21:28:32;;;;;;;38.63;12.60;;;;;;;7.91;100.00;101374.66;5299928;28;20039;-77
2022/12/24 21:31:09;;;;;;;38.07;11.87;;;;;;;7.93;100.00;101360.66;5299475;28;20024;-74
2022/12/24 21:33:41;;;;;;;34.27;12.00;;;;;;;7.92;100.00;101366.78;5299717;28;20032;-73
2022/12/24 21:36:13;;;;;;;34.83;10.80;;;;;;;7.92;100.00;101358.97;5323035;27;20070;-74
2022/12/24 21:38:44;;;;;;;37.10;11.67;;;;;;;7.99;100.00;101360.41;5300144;28;20028;-81
2022/12/24 21:41:18;;;;;;;35.97;10.77;;;;;;;8.01;100.00;101364.72;5299914;28;20062;-81
2022/12/24 21:43:50;;;;;;;34.30;11.02;;;;;;;7.87;100.00;101345.28;5299901;28;20020;-76
2022/12/24 21:46:23;;;;;;;38.43;12.30;;;;;;;7.92;100.00;101326.81;5299984;28;20081;-78
2022/12/24 21:51:47;;;;;;;30.20;10.20;;;;;;;7.98;100.00;101321.34;5295192;28;20036;-75
2022/12/24 21:54:31;;;;;;;29.87;10.77;;;;;;;7.96;100.00;101325.75;5296449;28;20035;-74
2022/12/24 22:00:20;;;;;;;33.70;12.00;;;;;;;7.94;100.00;101312.78;5294759;28;20056;-75
2022/12/24 22:02:56;;;;;;;28.80;10.83;;;;;;;7.97;100.00;101312.69;5297157;28;20097;-76
2022/12/24 22:05:32;;;;;;;31.80;10.60;;;;;;;7.99;100.00;101316.06;5299562;28;20036;-79
2022/12/24 22:13:43;;;;;;;29.27;9.53;;;;;;;7.96;100.00;101310.09;5296880;28;20032;-77
2022/12/24 22:16:14;;;;;;;32.93;11.00;;;;;;;8.01;100.00;101323.00;5286992;28;20506;-78
2022/12/24 22:18:45;;;;;;;30.87;10.80;;;;;;;7.95;100.00;101329.28;5299395;28;20020;-74
2022/12/24 22:21:17;;;;;;;26.87;8.30;;;;;;;7.88;100.00;101328.69;5297178;28;20165;-74
2022/12/24 22:23:48;;;;;;;34.80;8.90;;;;;;;7.91;100.00;101339.00;5298571;28;20028;-74
2022/12/24 22:26:20;;;;;;;25.90;9.40;;;;;;;7.80;100.00;101323.78;5299808;28;20032;-78
2022/12/24 22:28:51;;;;;;;32.23;9.33;;;;;;;7.80;100.00;101338.59;5298720;28;20051;-73
